sensor_id;sensor_type;location;lat;lon;timestamp;pressure;altitude;pressure_sealevel;temperature;humidity
13029;BME280;6581;42.662;23.402;2023-04-28T00:01:45;95554.41;;;7.40;53.32
13029;BME280;6581;42.662;23.402;2023-04-28T00:04:12;95552.84;;;7.39;53.34
13029;BME280;6581;42.662;23.402;2023-04-28T00:06:39;95560.44;;;7.41;53.37
13029;BME280;6581;42.662;23.402;2023-04-28T00:09:31;95559.88;;;7.35;54.16
13029;BME280;6581;42.662;23.402;2023-04-28T00:11:58;95559.53;;;7.25;53.43
13029;BME280;6581;42.662;23.402;2023-04-28T00:14:26;95561.09;;;7.26;53.85
13029;BME280;6581;42.662;23.402;2023-04-28T00:16:55;95565.03;;;7.20;54.04
13029;BME280;6581;42.662;23.402;2023-04-28T00:19:23;95562.19;;;7.12;54.83
13029;BME280;6581;42.662;23.402;2023-04-28T00:21:50;95558.00;;;7.11;54.67
13029;BME280;6581;42.662;23.402;2023-04-28T00:24:18;95563.28;;;7.11;54.41
13029;BME280;6581;42.662;23.402;2023-04-28T00:26:45;95566.00;;;7.03;55.06
13029;BME280;6581;42.662;23.402;2023-04-28T00:29:12;95556.25;;;7.03;56.13
13029;BME280;6581;42.662;23.402;2023-04-28T00:31:39;95566.56;;;6.96;55.58
13029;BME280;6581;42.662;23.402;2023-04-28T00:34:08;95566.72;;;6.79;56.45
13029;BME280;6581;42.662;23.402;2023-04-28T00:36:38;95569.72;;;6.90;56.16
13029;BME280;6581;42.662;23.402;2023-04-28T00:39:07;95574.41;;;6.84;57.07
13029;BME280;6581;42.662;23.402;2023-04-28T00:41:34;95575.94;;;6.73;56.34
13029;BME280;6581;42.662;23.402;2023-04-28T00:44:02;95575.94;;;6.73;56.57
13029;BME280;6581;42.662;23.402;2023-04-28T00:46:29;95582.97;;;6.69;57.18
13029;BME280;6581;42.662;23.402;2023-04-28T00:49:23;95576.66;;;6.61;57.18
13029;BME280;6581;42.662;23.402;2023-04-28T00:51:50;95576.34;;;6.63;57.21
13029;BME280;6581;42.662;23.402;2023-04-28T00:54:17;95576.56;;;6.58;57.22
13029;BME280;6581;42.662;23.402;2023-04-28T00:56:45;95575.19;;;6.52;57.54
13029;BME280;6581;42.662;23.402;2023-04-28T00:59:13;95575.53;;;6.50;57.83
13029;BME280;6581;42.662;23.402;2023-04-28T01:01:40;95576.09;;;6.56;57.94
13029;BME280;6581;42.662;23.402;2023-04-28T01:04:07;95576.56;;;6.58;58.08
13029;BME280;6581;42.662;23.402;2023-04-28T01:06:40;95585.84;;;6.55;58.48
13029;BME280;6581;42.662;23.402;2023-04-28T01:09:08;95583.09;;;6.52;58.37
13029;BME280;6581;42.662;23.402;2023-04-28T01:11:35;95590.31;;;6.43;58.71
13029;BME280;6581;42.662;23.402;2023-04-28T01:14:23;95588.25;;;6.48;58.68
13029;BME280;6581;42.662;23.402;2023-04-28T01:16:50;95586.00;;;6.38;59.12
13029;BME280;6581;42.662;23.402;2023-04-28T01:19:20;95593.47;;;6.36;58.78
13029;BME280;6581;42.662;23.402;2023-04-28T01:21:50;95595.06;;;6.29;59.48
13029;BME280;6581;42.662;23.402;2023-04-28T01:24:23;95588.28;;;6.28;59.56
13029;BME280;6581;42.662;23.402;2023-04-28T01:27:16;95597.19;;;6.35;59.67
13029;BME280;6581;42.662;23.402;2023-04-28T01:29:43;95582.31;;;6.18;59.75
13029;BME280;6581;42.662;23.402;2023-04-28T01:32:11;95592.38;;;6.16;59.87
13029;BME280;6581;42.662;23.402;2023-04-28T01:34:38;95595.91;;;6.20;59.84
13029;BME280;6581;42.662;23.402;2023-04-28T01:37:06;95595.59;;;6.22;58.83
13029;BME280;6581;42.662;23.402;2023-04-28T01:39:37;95595.47;;;6.18;59.79
13029;BME280;6581;42.662;23.402;2023-04-28T01:42:04;95598.59;;;6.12;59.76
13029;BME280;6581;42.662;23.402;2023-04-28T01:44:31;95588.44;;;6.02;60.08
13029;BME280;6581;42.662;23.402;2023-04-28T01:46:58;95594.94;;;6.04;60.34
13029;BME280;6581;42.662;23.402;2023-04-28T01:49:25;95589.88;;;5.99;59.50
13029;BME280;6581;42.662;23.402;2023-04-28T01:51:52;95591.66;;;6.07;59.73
13029;BME280;6581;42.662;23.402;2023-04-28T01:54:20;95593.22;;;6.08;59.58
13029;BME280;6581;42.662;23.402;2023-04-28T01:56:50;95594.75;;;6.09;58.72
13029;BME280;6581;42.662;23.402;2023-04-28T01:59:19;95586.91;;;6.01;60.09
13029;BME280;6581;42.662;23.402;2023-04-28T02:01:46;95595.72;;;6.05;59.76
13029;BME280;6581;42.662;23.402;2023-04-28T02:04:13;95596.28;;;6.10;59.58
13029;BME280;6581;42.662;23.402;2023-04-28T02:06:40;95588.06;;;6.12;58.92
13029;BME280;6581;42.662;23.402;2023-04-28T02:09:07;95591.38;;;6.09;58.95
13029;BME280;6581;42.662;23.402;2023-04-28T02:11:34;95600.47;;;6.11;58.75
13029;BME280;6581;42.662;23.402;2023-04-28T02:14:03;95599.81;;;5.94;58.85
13029;BME280;6581;42.662;23.402;2023-04-28T02:16:30;95606.63;;;5.95;59.07
13029;BME280;6581;42.662;23.402;2023-04-28T02:18:57;95597.44;;;6.01;59.71
13029;BME280;6581;42.662;23.402;2023-04-28T02:21:26;95606.44;;;6.00;58.99
13029;BME280;6581;42.662;23.402;2023-04-28T02:23:53;95607.81;;;5.97;59.26
13029;BME280;6581;42.662;23.402;2023-04-28T02:26:22;95604.28;;;5.93;59.24
13029;BME280;6581;42.662;23.402;2023-04-28T02:28:50;95605.19;;;5.97;59.27
13029;BME280;6581;42.662;23.402;2023-04-28T02:31:19;95610.81;;;5.87;59.62
13029;BME280;6581;42.662;23.402;2023-04-28T02:33:46;95601.53;;;5.90;59.17
13029;BME280;6581;42.662;23.402;2023-04-28T02:36:13;95610.34;;;5.85;59.26
13029;BME280;6581;42.662;23.402;2023-04-28T02:38:40;95612.53;;;5.83;59.99
13029;BME280;6581;42.662;23.402;2023-04-28T02:41:07;95610.97;;;5.82;60.41
13029;BME280;6581;42.662;23.402;2023-04-28T02:43:35;95613.75;;;5.86;59.35
13029;BME280;6581;42.662;23.402;2023-04-28T02:46:29;95613.25;;;5.92;60.01
13029;BME280;6581;42.662;23.402;2023-04-28T02:48:56;95619.28;;;5.93;59.89
13029;BME280;6581;42.662;23.402;2023-04-28T02:51:23;95626.28;;;5.89;59.74
13029;BME280;6581;42.662;23.402;2023-04-28T02:53:51;95625.81;;;5.87;58.85
13029;BME280;6581;42.662;23.402;2023-04-28T02:56:18;95630.31;;;5.86;58.71
13029;BME280;6581;42.662;23.402;2023-04-28T02:58:45;95626.66;;;5.70;60.14
13029;BME280;6581;42.662;23.402;2023-04-28T03:01:12;95624.59;;;5.84;59.89
13029;BME280;6581;42.662;23.402;2023-04-28T03:03:40;95628.44;;;5.87;59.81
13029;BME280;6581;42.662;23.402;2023-04-28T03:06:08;95634.00;;;5.94;59.71
13029;BME280;6581;42.662;23.402;2023-04-28T03:08:35;95635.56;;;5.86;58.92
13029;BME280;6581;42.662;23.402;2023-04-28T03:11:02;95641.28;;;5.88;59.24
13029;BME280;6581;42.662;23.402;2023-04-28T03:13:30;95634.00;;;5.85;59.31
13029;BME280;6581;42.662;23.402;2023-04-28T03:15:57;95631.25;;;5.82;59.54
13029;BME280;6581;42.662;23.402;2023-04-28T03:18:24;95634.63;;;5.82;59.75
13029;BME280;6581;42.662;23.402;2023-04-28T03:20:52;95634.94;;;5.89;60.03
13029;BME280;6581;42.662;23.402;2023-04-28T03:23:19;95635.38;;;5.91;60.02
13029;BME280;6581;42.662;23.402;2023-04-28T03:25:46;95646.84;;;5.95;59.62
13029;BME280;6581;42.662;23.402;2023-04-28T03:28:13;95646.19;;;5.98;59.56
13029;BME280;6581;42.662;23.402;2023-04-28T03:30:41;95652.41;;;5.94;60.44
13029;BME280;6581;42.662;23.402;2023-04-28T03:33:08;95657.47;;;5.99;59.83
13029;BME280;6581;42.662;23.402;2023-04-28T03:35:35;95651.03;;;5.88;59.18
13029;BME280;6581;42.662;23.402;2023-04-28T03:38:03;95657.06;;;5.88;59.99
13029;BME280;6581;42.662;23.402;2023-04-28T03:40:32;95665.09;;;5.83;59.48
13029;BME280;6581;42.662;23.402;2023-04-28T03:43:24;95672.78;;;5.97;59.07
13029;BME280;6581;42.662;23.402;2023-04-28T03:46:17;95675.25;;;6.02;59.04
13029;BME280;6581;42.662;23.402;2023-04-28T03:48:44;95680.78;;;6.09;59.62
13029;BME280;6581;42.662;23.402;2023-04-28T03:51:12;95679.66;;;6.10;58.78
13029;BME280;6581;42.662;23.402;2023-04-28T03:53:41;95688.97;;;6.07;57.79
13029;BME280;6581;42.662;23.402;2023-04-28T03:56:09;95686.53;;;6.02;58.07
13029;BME280;6581;42.662;23.402;2023-04-28T03:58:38;95690.19;;;6.10;57.73
13029;BME280;6581;42.662;23.402;2023-04-28T04:01:06;95690.00;;;6.15;58.44
13029;BME280;6581;42.662;23.402;2023-04-28T04:03:33;95702.91;;;6.08;57.57
13029;BME280;6581;42.662;23.402;2023-04-28T04:06:00;95708.88;;;6.17;57.95
13029;BME280;6581;42.662;23.402;2023-04-28T04:08:27;95713.00;;;6.27;57.99
13029;BME280;6581;42.662;23.402;2023-04-28T04:10:56;95714.34;;;6.33;58.22
13029;BME280;6581;42.662;23.402;2023-04-28T04:13:23;95716.06;;;6.29;57.74
13029;BME280;6581;42.662;23.402;2023-04-28T04:16:16;95714.94;;;6.17;57.47
13029;BME280;6581;42.662;23.402;2023-04-28T04:18:43;95718.28;;;6.27;57.93
13029;BME280;6581;42.662;23.402;2023-04-28T04:21:30;95726.00;;;6.32;59.25
13029;BME280;6581;42.662;23.402;2023-04-28T04:23:58;95723.19;;;6.28;57.15
13029;BME280;6581;42.662;23.402;2023-04-28T04:26:27;95728.75;;;6.35;57.30
13029;BME280;6581;42.662;23.402;2023-04-28T04:28:55;95723.34;;;6.32;56.97
13029;BME280;6581;42.662;23.402;2023-04-28T04:31:22;95726.69;;;6.41;57.44
13029;BME280;6581;42.662;23.402;2023-04-28T04:33:50;95734.13;;;6.39;57.45
13029;BME280;6581;42.662;23.402;2023-04-28T04:36:19;95732.22;;;6.48;56.09
13029;BME280;6581;42.662;23.402;2023-04-28T04:38:46;95732.88;;;6.45;56.09
13029;BME280;6581;42.662;23.402;2023-04-28T04:41:17;95737.28;;;6.53;56.85
13029;BME280;6581;42.662;23.402;2023-04-28T04:43:48;95737.75;;;6.55;56.50
13029;BME280;6581;42.662;23.402;2023-04-28T04:46:15;95746.41;;;6.55;54.98
13029;BME280;6581;42.662;23.402;2023-04-28T04:48:43;95743.66;;;6.52;55.34
13029;BME280;6581;42.662;23.402;2023-04-28T04:51:10;95751.66;;;6.55;57.26
13029;BME280;6581;42.662;23.402;2023-04-28T04:53:37;95748.41;;;6.58;56.48
13029;BME280;6581;42.662;23.402;2023-04-28T04:56:05;95748.13;;;6.51;54.32
13029;BME280;6581;42.662;23.402;2023-04-28T04:58:34;95745.38;;;6.48;54.12
13029;BME280;6581;42.662;23.402;2023-04-28T05:01:22;95757.78;;;6.68;56.78
13029;BME280;6581;42.662;23.402;2023-04-28T05:03:49;95753.41;;;6.51;54.95
13029;BME280;6581;42.662;23.402;2023-04-28T05:06:16;95753.09;;;6.53;55.40
13029;BME280;6581;42.662;23.402;2023-04-28T05:08:47;95760.28;;;6.64;55.48
13029;BME280;6581;42.662;23.402;2023-04-28T05:11:39;95759.13;;;6.74;55.54
13029;BME280;6581;42.662;23.402;2023-04-28T05:14:07;95767.56;;;6.67;53.67
13029;BME280;6581;42.662;23.402;2023-04-28T05:16:36;95766.38;;;6.56;53.48
13029;BME280;6581;42.662;23.402;2023-04-28T05:19:14;95762.34;;;6.59;54.52
13029;BME280;6581;42.662;23.402;2023-04-28T05:21:41;95758.59;;;6.60;53.17
13029;BME280;6581;42.662;23.402;2023-04-28T05:24:34;95764.03;;;6.63;53.31
13029;BME280;6581;42.662;23.402;2023-04-28T05:27:02;95759.56;;;6.55;53.61
13029;BME280;6581;42.662;23.402;2023-04-28T05:29:29;95759.44;;;6.52;52.75
13029;BME280;6581;42.662;23.402;2023-04-28T05:31:57;95759.53;;;6.64;53.64
13029;BME280;6581;42.662;23.402;2023-04-28T05:34:25;95760.56;;;6.72;53.90
13029;BME280;6581;42.662;23.402;2023-04-28T05:36:52;95757.72;;;6.56;52.64
13029;BME280;6581;42.662;23.402;2023-04-28T05:39:23;95753.31;;;6.68;53.69
13029;BME280;6581;42.662;23.402;2023-04-28T05:41:53;95761.63;;;6.71;53.88
13029;BME280;6581;42.662;23.402;2023-04-28T05:44:20;95759.84;;;6.83;53.10
13029;BME280;6581;42.662;23.402;2023-04-28T05:46:47;95757.72;;;6.97;54.31
13029;BME280;6581;42.662;23.402;2023-04-28T05:49:20;95753.84;;;7.16;54.37
13029;BME280;6581;42.662;23.402;2023-04-28T05:51:47;95759.06;;;7.03;51.86
13029;BME280;6581;42.662;23.402;2023-04-28T05:54:15;95752.53;;;7.09;53.00
13029;BME280;6581;42.662;23.402;2023-04-28T05:56:45;95768.16;;;7.27;53.79
13029;BME280;6581;42.662;23.402;2023-04-28T05:59:37;95768.25;;;7.18;52.60
13029;BME280;6581;42.662;23.402;2023-04-28T06:02:05;95757.38;;;7.20;53.13
13029;BME280;6581;42.662;23.402;2023-04-28T06:04:34;95755.16;;;7.09;52.55
13029;BME280;6581;42.662;23.402;2023-04-28T06:07:01;95756.28;;;7.21;54.17
13029;BME280;6581;42.662;23.402;2023-04-28T06:09:29;95759.41;;;7.35;52.43
13029;BME280;6581;42.662;23.402;2023-04-28T06:11:58;95765.44;;;7.35;50.94
13029;BME280;6581;42.662;23.402;2023-04-28T06:14:25;95770.41;;;7.37;51.02
13029;BME280;6581;42.662;23.402;2023-04-28T06:16:52;95763.81;;;7.43;51.60
13029;BME280;6581;42.662;23.402;2023-04-28T06:19:20;95754.94;;;7.47;52.86
13029;BME280;6581;42.662;23.402;2023-04-28T06:21:48;95758.06;;;7.62;52.98
13029;BME280;6581;42.662;23.402;2023-04-28T06:24:42;95760.06;;;7.77;52.19
13029;BME280;6581;42.662;23.402;2023-04-28T06:27:13;95763.06;;;7.87;51.63
13029;BME280;6581;42.662;23.402;2023-04-28T06:29:40;95761.63;;;7.90;51.52
13029;BME280;6581;42.662;23.402;2023-04-28T06:32:07;95773.72;;;8.03;51.43
13029;BME280;6581;42.662;23.402;2023-04-28T06:34:59;95772.41;;;8.09;51.39
13029;BME280;6581;42.662;23.402;2023-04-28T06:37:28;95765.50;;;8.05;51.52
13029;BME280;6581;42.662;23.402;2023-04-28T06:39:57;95763.41;;;8.10;50.79
13029;BME280;6581;42.662;23.402;2023-04-28T06:42:24;95756.91;;;7.95;50.13
13029;BME280;6581;42.662;23.402;2023-04-28T06:44:58;95746.88;;;7.65;49.99
13029;BME280;6581;42.662;23.402;2023-04-28T06:47:27;95759.41;;;7.80;50.13
13029;BME280;6581;42.662;23.402;2023-04-28T06:49:54;95755.72;;;8.05;50.10
13029;BME280;6581;42.662;23.402;2023-04-28T06:52:22;95756.81;;;8.16;50.19
13029;BME280;6581;42.662;23.402;2023-04-28T06:54:51;95747.47;;;8.31;50.70
13029;BME280;6581;42.662;23.402;2023-04-28T06:57:18;95749.78;;;8.44;49.40
13029;BME280;6581;42.662;23.402;2023-04-28T06:59:46;95747.59;;;8.47;49.99
13029;BME280;6581;42.662;23.402;2023-04-28T07:02:13;95747.56;;;8.59;50.32
13029;BME280;6581;42.662;23.402;2023-04-28T07:04:40;95761.41;;;8.68;47.84
13029;BME280;6581;42.662;23.402;2023-04-28T07:07:07;95756.88;;;8.80;47.36
13029;BME280;6581;42.662;23.402;2023-04-28T07:09:34;95763.56;;;8.90;46.53
13029;BME280;6581;42.662;23.402;2023-04-28T07:12:04;95759.16;;;8.94;46.23
13029;BME280;6581;42.662;23.402;2023-04-28T07:14:31;95764.06;;;9.08;45.38
13029;BME280;6581;42.662;23.402;2023-04-28T07:17:23;95751.19;;;9.06;46.36
13029;BME280;6581;42.662;23.402;2023-04-28T07:19:50;95746.16;;;9.29;46.58
13029;BME280;6581;42.662;23.402;2023-04-28T07:22:17;95746.31;;;9.79;47.71
13029;BME280;6581;42.662;23.402;2023-04-28T07:24:44;95744.19;;;10.32;44.57
13029;BME280;6581;42.662;23.402;2023-04-28T07:27:36;95754.34;;;11.00;40.59
13029;BME280;6581;42.662;23.402;2023-04-28T07:30:04;95756.53;;;11.94;39.32
13029;BME280;6581;42.662;23.402;2023-04-28T07:32:31;95756.47;;;13.92;35.14
13029;BME280;6581;42.662;23.402;2023-04-28T07:34:59;95747.47;;;14.55;33.51
13029;BME280;6581;42.662;23.402;2023-04-28T07:37:26;95748.28;;;14.11;33.58
13029;BME280;6581;42.662;23.402;2023-04-28T07:39:53;95754.13;;;15.83;32.27
13029;BME280;6581;42.662;23.402;2023-04-28T07:42:20;95752.66;;;16.49;31.19
13029;BME280;6581;42.662;23.402;2023-04-28T07:44:48;95745.47;;;17.54;29.62
13029;BME280;6581;42.662;23.402;2023-04-28T07:47:16;95755.22;;;18.89;28.24
13029;BME280;6581;42.662;23.402;2023-04-28T07:49:43;95752.34;;;19.07;27.09
13029;BME280;6581;42.662;23.402;2023-04-28T07:52:10;95747.59;;;19.82;26.51
13029;BME280;6581;42.662;23.402;2023-04-28T07:54:37;95750.94;;;19.63;26.03
13029;BME280;6581;42.662;23.402;2023-04-28T07:57:04;95750.13;;;20.46;25.47
13029;BME280;6581;42.662;23.402;2023-04-28T07:59:32;95746.06;;;21.01;24.11
13029;BME280;6581;42.662;23.402;2023-04-28T08:02:00;95749.25;;;23.04;22.01
13029;BME280;6581;42.662;23.402;2023-04-28T08:04:27;95749.66;;;22.58;22.10
13029;BME280;6581;42.662;23.402;2023-04-28T08:06:57;95747.50;;;23.26;21.58
13029;BME280;6581;42.662;23.402;2023-04-28T08:09:24;95754.44;;;21.65;22.89
13029;BME280;6581;42.662;23.402;2023-04-28T08:11:51;95744.16;;;21.01;23.71
13029;BME280;6581;42.662;23.402;2023-04-28T08:14:19;95739.53;;;19.55;25.12
13029;BME280;6581;42.662;23.402;2023-04-28T08:16:47;95734.00;;;18.64;27.10
13029;BME280;6581;42.662;23.402;2023-04-28T08:19:15;95747.53;;;17.15;29.17
13029;BME280;6581;42.662;23.402;2023-04-28T08:21:42;95741.38;;;14.54;31.05
13029;BME280;6581;42.662;23.402;2023-04-28T08:24:09;95743.91;;;13.52;33.18
13029;BME280;6581;42.662;23.402;2023-04-28T08:26:36;95738.44;;;12.78;34.71
13029;BME280;6581;42.662;23.402;2023-04-28T08:29:03;95734.94;;;13.01;35.92
13029;BME280;6581;42.662;23.402;2023-04-28T08:31:31;95733.28;;;12.63;36.20
13029;BME280;6581;42.662;23.402;2023-04-28T08:33:58;95727.47;;;12.83;37.37
13029;BME280;6581;42.662;23.402;2023-04-28T08:36:26;95731.00;;;12.91;37.72
13029;BME280;6581;42.662;23.402;2023-04-28T08:38:57;95735.22;;;12.66;35.86
13029;BME280;6581;42.662;23.402;2023-04-28T08:41:24;95731.34;;;12.60;35.96
13029;BME280;6581;42.662;23.402;2023-04-28T08:43:52;95723.88;;;12.69;37.43
13029;BME280;6581;42.662;23.402;2023-04-28T08:46:20;95727.69;;;12.41;35.35
13029;BME280;6581;42.662;23.402;2023-04-28T08:48:48;95727.91;;;12.33;35.79
13029;BME280;6581;42.662;23.402;2023-04-28T08:51:29;95723.88;;;12.42;35.35
13029;BME280;6581;42.662;23.402;2023-04-28T08:54:01;95720.31;;;12.58;36.50
13029;BME280;6581;42.662;23.402;2023-04-28T08:56:32;95718.50;;;12.65;37.09
13029;BME280;6581;42.662;23.402;2023-04-28T08:59:01;95723.69;;;12.55;35.09
13029;BME280;6581;42.662;23.402;2023-04-28T09:01:29;95717.75;;;12.65;35.71
13029;BME280;6581;42.662;23.402;2023-04-28T09:03:59;95717.84;;;12.72;35.71
13029;BME280;6581;42.662;23.402;2023-04-28T09:06:31;95707.41;;;12.86;36.34
13029;BME280;6581;42.662;23.402;2023-04-28T09:09:22;95709.50;;;13.03;35.90
13029;BME280;6581;42.662;23.402;2023-04-28T09:11:50;95709.72;;;13.21;36.68
13029;BME280;6581;42.662;23.402;2023-04-28T09:14:18;95699.53;;;13.26;35.45
13029;BME280;6581;42.662;23.402;2023-04-28T09:16:46;95694.88;;;13.20;34.48
13029;BME280;6581;42.662;23.402;2023-04-28T09:19:13;95698.84;;;13.03;35.70
13029;BME280;6581;42.662;23.402;2023-04-28T09:21:48;95684.81;;;13.06;35.47
13029;BME280;6581;42.662;23.402;2023-04-28T09:24:27;95685.75;;;13.17;34.82
13029;BME280;6581;42.662;23.402;2023-04-28T09:26:54;95688.91;;;13.30;35.85
13029;BME280;6581;42.662;23.402;2023-04-28T09:29:22;95682.06;;;13.29;33.94
13029;BME280;6581;42.662;23.402;2023-04-28T09:31:49;95684.19;;;13.50;38.77
13029;BME280;6581;42.662;23.402;2023-04-28T09:34:16;95677.47;;;13.63;36.59
13029;BME280;6581;42.662;23.402;2023-04-28T09:36:43;95682.72;;;13.56;35.81
13029;BME280;6581;42.662;23.402;2023-04-28T09:39:10;95677.75;;;13.54;33.93
13029;BME280;6581;42.662;23.402;2023-04-28T09:41:40;95673.34;;;13.69;34.97
13029;BME280;6581;42.662;23.402;2023-04-28T09:44:14;95669.31;;;13.89;34.83
13029;BME280;6581;42.662;23.402;2023-04-28T09:46:41;95667.06;;;13.47;33.73
13029;BME280;6581;42.662;23.402;2023-04-28T09:49:09;95659.09;;;13.51;33.57
13029;BME280;6581;42.662;23.402;2023-04-28T09:51:36;95656.94;;;13.63;32.82
13029;BME280;6581;42.662;23.402;2023-04-28T09:54:04;95651.66;;;13.70;33.52
13029;BME280;6581;42.662;23.402;2023-04-28T09:56:32;95656.34;;;13.40;33.17
13029;BME280;6581;42.662;23.402;2023-04-28T09:59:04;95648.50;;;13.58;35.10
13029;BME280;6581;42.662;23.402;2023-04-28T10:01:49;95647.66;;;13.47;34.47
13029;BME280;6581;42.662;23.402;2023-04-28T10:04:17;95653.88;;;13.24;32.36
13029;BME280;6581;42.662;23.402;2023-04-28T10:06:45;95645.81;;;13.14;34.04
13029;BME280;6581;42.662;23.402;2023-04-28T10:09:12;95645.88;;;13.21;31.68
13029;BME280;6581;42.662;23.402;2023-04-28T10:11:41;95633.31;;;13.18;33.02
13029;BME280;6581;42.662;23.402;2023-04-28T10:14:35;95632.09;;;13.52;33.63
13029;BME280;6581;42.662;23.402;2023-04-28T10:17:03;95634.81;;;13.56;31.80
13029;BME280;6581;42.662;23.402;2023-04-28T10:19:31;95630.28;;;13.60;31.40
13029;BME280;6581;42.662;23.402;2023-04-28T10:22:32;95637.53;;;13.22;31.96
13029;BME280;6581;42.662;23.402;2023-04-28T10:25:24;95628.09;;;13.69;35.12
13029;BME280;6581;42.662;23.402;2023-04-28T10:27:51;95623.03;;;14.08;35.24
13029;BME280;6581;42.662;23.402;2023-04-28T10:30:21;95627.75;;;13.74;32.21
13029;BME280;6581;42.662;23.402;2023-04-28T10:33:21;95626.38;;;13.98;31.80
13029;BME280;6581;42.662;23.402;2023-04-28T10:35:48;95618.56;;;14.26;32.22
13029;BME280;6581;42.662;23.402;2023-04-28T10:38:17;95612.56;;;14.40;30.18
13029;BME280;6581;42.662;23.402;2023-04-28T10:40:46;95614.88;;;14.45;30.67
13029;BME280;6581;42.662;23.402;2023-04-28T10:43:32;95616.66;;;14.27;29.96
13029;BME280;6581;42.662;23.402;2023-04-28T10:46:03;95607.53;;;14.20;31.54
13029;BME280;6581;42.662;23.402;2023-04-28T10:49:04;95600.66;;;14.19;32.32
13029;BME280;6581;42.662;23.402;2023-04-28T10:51:32;95609.41;;;14.20;32.61
13029;BME280;6581;42.662;23.402;2023-04-28T10:54:09;95596.91;;;14.31;31.19
13029;BME280;6581;42.662;23.402;2023-04-28T10:56:36;95589.97;;;14.16;32.34
13029;BME280;6581;42.662;23.402;2023-04-28T10:59:24;95596.03;;;14.09;32.83
13029;BME280;6581;42.662;23.402;2023-04-28T11:01:53;95597.16;;;14.08;33.45
13029;BME280;6581;42.662;23.402;2023-04-28T11:04:20;95597.22;;;14.23;30.55
13029;BME280;6581;42.662;23.402;2023-04-28T11:07:09;95586.16;;;14.13;31.02
13029;BME280;6581;42.662;23.402;2023-04-28T11:09:47;95588.75;;;14.03;30.23
13029;BME280;6581;42.662;23.402;2023-04-28T11:12:15;95586.13;;;14.10;29.81
13029;BME280;6581;42.662;23.402;2023-04-28T11:14:43;95582.00;;;14.19;29.82
13029;BME280;6581;42.662;23.402;2023-04-28T11:17:12;95581.19;;;14.12;29.75
13029;BME280;6581;42.662;23.402;2023-04-28T11:19:42;95572.13;;;14.24;31.79
13029;BME280;6581;42.662;23.402;2023-04-28T11:22:13;95573.69;;;14.32;31.40
13029;BME280;6581;42.662;23.402;2023-04-28T11:24:41;95567.22;;;14.33;30.05
13029;BME280;6581;42.662;23.402;2023-04-28T11:27:22;95568.44;;;14.42;30.08
13029;BME280;6581;42.662;23.402;2023-04-28T11:29:50;95573.03;;;14.49;31.00
13029;BME280;6581;42.662;23.402;2023-04-28T11:32:25;95560.50;;;14.60;29.20
13029;BME280;6581;42.662;23.402;2023-04-28T11:34:53;95563.63;;;14.80;28.78
13029;BME280;6581;42.662;23.402;2023-04-28T11:37:20;95559.47;;;14.93;30.26
13029;BME280;6581;42.662;23.402;2023-04-28T11:39:48;95552.19;;;14.83;31.27
13029;BME280;6581;42.662;23.402;2023-04-28T11:42:15;95557.97;;;15.06;30.50
13029;BME280;6581;42.662;23.402;2023-04-28T11:44:48;95549.59;;;15.07;28.01
13029;BME280;6581;42.662;23.402;2023-04-28T11:47:27;95550.34;;;15.15;28.26
13029;BME280;6581;42.662;23.402;2023-04-28T11:49:54;95539.28;;;15.13;27.74
13029;BME280;6581;42.662;23.402;2023-04-28T11:52:22;95542.72;;;15.06;27.20
13029;BME280;6581;42.662;23.402;2023-04-28T11:54:55;95541.97;;;15.17;28.76
13029;BME280;6581;42.662;23.402;2023-04-28T11:57:23;95530.91;;;15.07;27.34
13029;BME280;6581;42.662;23.402;2023-04-28T11:59:51;95534.34;;;15.26;30.01
13029;BME280;6581;42.662;23.402;2023-04-28T12:02:25;95530.91;;;15.50;27.97
13029;BME280;6581;42.662;23.402;2023-04-28T12:04:54;95530.53;;;15.34;26.91
13029;BME280;6581;42.662;23.402;2023-04-28T12:07:22;95528.59;;;15.45;27.56
13029;BME280;6581;42.662;23.402;2023-04-28T12:10:11;95524.44;;;15.55;29.29
13029;BME280;6581;42.662;23.402;2023-04-28T12:12:41;95518.31;;;15.47;28.21
13029;BME280;6581;42.662;23.402;2023-04-28T12:15:09;95516.06;;;15.56;31.16
13029;BME280;6581;42.662;23.402;2023-04-28T12:17:38;95502.69;;;15.63;31.80
13029;BME280;6581;42.662;23.402;2023-04-28T12:20:07;95504.22;;;15.64;29.82
13029;BME280;6581;42.662;23.402;2023-04-28T12:22:42;95500.78;;;15.60;29.28
13029;BME280;6581;42.662;23.402;2023-04-28T12:25:11;95503.84;;;15.66;28.26
13029;BME280;6581;42.662;23.402;2023-04-28T12:27:39;95491.97;;;15.77;29.26
13029;BME280;6581;42.662;23.402;2023-04-28T12:30:26;95498.06;;;15.81;29.08
13029;BME280;6581;42.662;23.402;2023-04-28T12:32:55;95488.47;;;16.05;29.21
13029;BME280;6581;42.662;23.402;2023-04-28T12:35:22;95494.22;;;16.04;29.07
13029;BME280;6581;42.662;23.402;2023-04-28T12:37:50;95491.56;;;15.93;28.90
13029;BME280;6581;42.662;23.402;2023-04-28T12:40:17;95491.19;;;15.87;28.28
13029;BME280;6581;42.662;23.402;2023-04-28T12:42:45;95478.69;;;15.56;28.41
13029;BME280;6581;42.662;23.402;2023-04-28T12:45:12;95482.81;;;15.85;28.60
13029;BME280;6581;42.662;23.402;2023-04-28T12:47:41;95483.97;;;15.74;28.66
13029;BME280;6581;42.662;23.402;2023-04-28T12:50:10;95477.13;;;15.69;30.61
13029;BME280;6581;42.662;23.402;2023-04-28T12:52:37;95476.31;;;15.86;30.83
13029;BME280;6581;42.662;23.402;2023-04-28T12:55:04;95470.56;;;15.99;30.68
13029;BME280;6581;42.662;23.402;2023-04-28T12:57:33;95468.28;;;15.86;29.28
13029;BME280;6581;42.662;23.402;2023-04-28T13:00:01;95464.84;;;15.93;30.13
13029;BME280;6581;42.662;23.402;2023-04-28T13:02:29;95463.25;;;16.10;30.76
13029;BME280;6581;42.662;23.402;2023-04-28T13:04:56;95461.25;;;16.28;31.38
13029;BME280;6581;42.662;23.402;2023-04-28T13:07:24;95455.19;;;16.24;29.62
13029;BME280;6581;42.662;23.402;2023-04-28T13:09:51;95449.50;;;16.15;29.97
13029;BME280;6581;42.662;23.402;2023-04-28T13:12:18;95443.44;;;16.07;30.35
13029;BME280;6581;42.662;23.402;2023-04-28T13:14:45;95451.03;;;16.09;29.33
13029;BME280;6581;42.662;23.402;2023-04-28T13:17:12;95455.50;;;16.33;32.15
13029;BME280;6581;42.662;23.402;2023-04-28T13:19:40;95457.03;;;16.34;30.35
13029;BME280;6581;42.662;23.402;2023-04-28T13:22:07;95450.06;;;16.54;29.66